createdAt,value
2023-05-15T00:04:04.367Z,12.16
2023-05-15T00:14:07.460Z,12.18
2023-05-15T00:24:10.650Z,12.21
2023-05-15T00:34:13.762Z,12.23
2023-05-15T00:44:17.677Z,12.16
2023-05-15T00:54:46.269Z,12.06
2023-05-15T01:04:50.295Z,12.04
2023-05-15T01:14:53.957Z,11.99
2023-05-15T01:25:16.435Z,11.94
2023-05-15T01:35:33.610Z,11.94
2023-05-15T01:45:37.687Z,11.89
2023-05-15T01:55:42.105Z,11.83
2023-05-15T02:05:46.885Z,11.83
2023-05-15T02:15:51.476Z,11.87
2023-05-15T02:26:17.805Z,11.93
2023-05-15T02:36:27.304Z,12.08
2023-05-15T02:46:31.567Z,12.21
2023-05-15T02:56:35.683Z,12.18
2023-05-15T03:06:38.796Z,12.07
2023-05-15T03:16:41.880Z,12.15
2023-05-15T03:26:45.382Z,12.25
2023-05-15T03:36:48.613Z,12.33
2023-05-15T03:46:51.646Z,12.27
2023-05-15T03:56:54.846Z,12.35
2023-05-15T04:06:57.996Z,12.49
2023-05-15T04:17:01.156Z,12.78
2023-05-15T04:27:04.515Z,13.07
2023-05-15T04:37:07.634Z,13.35
2023-05-15T04:47:11.660Z,13.44
2023-05-15T04:57:14.784Z,13.82
2023-05-15T05:07:17.957Z,14.19
2023-05-15T05:17:20.946Z,14.35
2023-05-15T05:27:24.291Z,14.24
2023-05-15T05:37:27.429Z,13.96
2023-05-15T05:47:30.587Z,13.83
2023-05-15T05:57:33.693Z,13.84
2023-05-15T06:07:37.626Z,13.89
2023-05-15T06:17:40.937Z,14.19
2023-05-15T06:27:43.984Z,14.78
2023-05-15T06:37:50.463Z,15.31
2023-05-15T06:47:53.588Z,15.82
2023-05-15T06:57:56.961Z,15.89
2023-05-15T07:08:00.138Z,16.10
2023-05-15T07:18:03.423Z,16.30
2023-05-15T07:28:06.542Z,16.68
2023-05-15T07:38:09.745Z,16.98
2023-05-15T07:48:19.999Z,18.11
2023-05-15T07:58:23.474Z,18.96
2023-05-15T08:08:26.668Z,18.99
2023-05-15T08:18:29.928Z,19.03
2023-05-15T08:28:33.709Z,19.16
2023-05-15T08:38:36.791Z,19.67
2023-05-15T08:48:42.354Z,20.05
2023-05-15T08:58:45.732Z,20.76
2023-05-15T09:08:50.178Z,21.17
2023-05-15T09:18:54.077Z,21.16
2023-05-15T09:29:04.021Z,21.11
2023-05-15T09:39:09.127Z,21.16
2023-05-15T09:49:12.993Z,21.69
2023-05-15T09:59:19.145Z,21.86
2023-05-15T10:09:22.203Z,22.24
2023-05-15T10:19:28.748Z,22.01
2023-05-15T10:29:32.796Z,21.43
2023-05-15T10:39:38.385Z,20.69
2023-05-15T10:49:41.791Z,20.13
2023-05-15T10:59:44.857Z,19.97
2023-05-15T11:09:48.125Z,19.81
2023-05-15T11:19:51.285Z,19.53
2023-05-15T11:30:25.365Z,19.34
2023-05-15T11:40:43.682Z,19.12
2023-05-15T11:50:47.018Z,19.20
2023-05-15T12:00:51.780Z,19.45
2023-05-15T12:10:58.495Z,19.74
2023-05-15T12:21:01.746Z,20.02
2023-05-15T12:31:05.406Z,20.05
2023-05-15T12:41:11.963Z,20.00
2023-05-15T12:51:17.637Z,20.28
2023-05-15T13:01:21.732Z,20.85
2023-05-15T13:11:34.297Z,21.68
2023-05-15T13:21:37.733Z,21.68
2023-05-15T13:31:40.849Z,22.11
2023-05-15T13:41:44.106Z,22.19
2023-05-15T13:51:47.214Z,21.65
2023-05-15T14:01:50.269Z,21.38
2023-05-15T14:11:53.386Z,21.67
2023-05-15T14:21:56.392Z,21.78
2023-05-15T14:31:59.536Z,21.84
2023-05-15T14:42:02.791Z,21.94
2023-05-15T14:52:08.330Z,21.69
2023-05-15T15:02:11.494Z,21.68
2023-05-15T15:12:14.705Z,21.15
2023-05-15T15:22:17.723Z,20.49
2023-05-15T15:32:20.907Z,20.04
2023-05-15T15:42:24.060Z,19.68
2023-05-15T15:52:27.774Z,19.53
2023-05-15T16:02:31.167Z,19.23
2023-05-15T16:12:34.647Z,18.77
2023-05-15T16:22:37.739Z,18.53
2023-05-15T16:32:40.837Z,18.47
2023-05-15T16:42:43.978Z,18.57
2023-05-15T16:52:48.315Z,18.34
2023-05-15T17:02:51.900Z,18.21
2023-05-15T17:12:55.909Z,17.94
2023-05-15T17:22:58.927Z,17.57
2023-05-15T17:33:02.185Z,17.13
2023-05-15T17:43:05.677Z,16.57
2023-05-15T17:53:08.794Z,16.09
2023-05-15T18:03:11.869Z,15.72
2023-05-15T18:13:14.929Z,15.49
2023-05-15T18:23:19.948Z,15.35
2023-05-15T18:33:23.010Z,15.14
2023-05-15T18:43:26.148Z,14.99
2023-05-15T18:53:29.286Z,14.80
2023-05-15T19:03:33.912Z,14.55
2023-05-15T19:13:36.984Z,14.19
2023-05-15T19:23:40.046Z,13.93
2023-05-15T19:33:43.128Z,13.69
2023-05-15T19:43:47.173Z,13.50
2023-05-15T19:53:50.316Z,13.34
2023-05-15T20:03:53.522Z,13.19
2023-05-15T20:13:56.694Z,12.94
2023-05-15T20:24:02.422Z,12.72
2023-05-15T20:34:07.236Z,12.54
2023-05-15T20:44:10.514Z,12.24
2023-05-15T20:54:13.565Z,12.09
2023-05-15T21:04:17.190Z,11.96
2023-05-15T21:14:20.496Z,11.82
2023-05-15T21:24:23.832Z,11.70
2023-05-15T21:34:26.827Z,11.54
2023-05-15T21:44:29.929Z,11.32
2023-05-15T21:54:32.990Z,11.10
2023-05-15T22:04:36.079Z,10.95
2023-05-15T22:14:46.960Z,10.76
2023-05-15T22:25:00.616Z,10.57
2023-05-15T22:35:04.449Z,10.41
2023-05-15T22:45:08.204Z,10.31
2023-05-15T22:55:12.731Z,10.27
2023-05-15T23:05:15.748Z,10.02
2023-05-15T23:15:18.974Z,9.69
2023-05-15T23:25:22.175Z,9.41
2023-05-15T23:35:25.249Z,9.21
2023-05-15T23:45:29.046Z,9.03
2023-05-15T23:55:32.837Z,8.80
